createdAt,value
2019-01-27T00:01:32.179Z,94196.19
2019-01-27T00:03:58.212Z,94211.34
2019-01-27T00:06:24.246Z,94206.55
2019-01-27T00:08:50.239Z,94221.57
2019-01-27T00:11:16.280Z,94229.27
2019-01-27T00:13:42.268Z,94218.21
2019-01-27T00:16:08.275Z,94227.66
2019-01-27T00:18:34.313Z,94222.33
2019-01-27T00:21:00.309Z,94217.52
2019-01-27T00:23:26.346Z,94226.01
2019-01-27T00:25:52.341Z,94231.46
2019-01-27T00:28:18.334Z,94234.41
2019-01-27T00:30:44.367Z,94242.52
2019-01-27T00:33:10.364Z,94243.95
2019-01-27T00:35:36.360Z,94247.02
2019-01-27T00:38:02.400Z,94250.19
2019-01-27T00:40:28.432Z,94255.64
2019-01-27T00:42:54.477Z,94247.25
2019-01-27T00:45:20.476Z,94255.73
2019-01-27T00:47:46.471Z,94256.27
2019-01-27T00:50:12.512Z,94250.54
2019-01-27T00:52:38.505Z,94263.56
2019-01-27T00:55:04.540Z,94256.59
2019-01-27T00:57:30.535Z,94257.92
2019-01-27T00:59:56.532Z,94258.43
2019-01-27T01:02:22.566Z,94257.63
2019-01-27T01:04:48.563Z,94254.44
2019-01-27T01:07:14.563Z,94250.98
2019-01-27T01:09:40.596Z,94253.33
2019-01-27T01:12:06.586Z,94252.81
2019-01-27T01:14:32.575Z,94251.20
2019-01-27T01:16:58.606Z,94246.80
2019-01-27T01:19:24.600Z,94253.45
2019-01-27T01:21:50.634Z,94251.70
2019-01-27T01:24:16.636Z,94257.03
2019-01-27T01:26:42.671Z,94257.66
2019-01-27T01:29:08.703Z,94261.24
2019-01-27T01:31:34.700Z,94259.09
2019-01-27T01:34:00.690Z,94261.75
2019-01-27T01:36:26.722Z,94268.81
2019-01-27T01:38:52.714Z,94272.02
2019-01-27T01:41:18.716Z,94273.03
2019-01-27T01:43:44.750Z,94273.85
2019-01-27T01:46:10.748Z,94284.09
2019-01-27T01:48:36.747Z,94279.27
2019-01-27T01:51:02.783Z,94272.62
2019-01-27T01:53:28.824Z,94277.15
2019-01-27T01:55:54.827Z,94277.24
2019-01-27T01:58:20.872Z,94277.66
2019-01-27T02:00:46.867Z,94280.31
2019-01-27T02:03:12.858Z,94272.75
2019-01-27T02:05:38.909Z,94271.22
2019-01-27T02:08:04.904Z,94272.45
2019-01-27T02:10:30.940Z,94268.56
2019-01-27T02:12:56.942Z,94264.56
2019-01-27T02:15:22.971Z,94265.48
2019-01-27T02:17:48.970Z,94267.36
2019-01-27T02:20:15.008Z,94267.36
2019-01-27T02:22:41.003Z,94274.52
2019-01-27T02:25:07.036Z,94276.77
2019-01-27T02:27:33.035Z,94271.95
2019-01-27T02:29:59.071Z,94270.94
2019-01-27T02:32:25.063Z,94270.62
2019-01-27T02:34:51.064Z,94278.22
2019-01-27T02:37:17.099Z,94277.27
2019-01-27T02:39:43.095Z,94285.37
2019-01-27T02:42:09.096Z,94282.30
2019-01-27T02:44:35.127Z,94282.30
2019-01-27T02:47:01.161Z,94282.72
2019-01-27T02:49:27.198Z,94284.97
2019-01-27T02:51:53.194Z,94290.29
2019-01-27T02:54:19.241Z,94295.20
2019-01-27T02:56:45.236Z,94291.63
2019-01-27T02:59:11.232Z,94290.00
2019-01-27T03:01:37.262Z,94286.42
2019-01-27T03:04:03.260Z,94294.41
2019-01-27T03:06:29.256Z,94292.66
2019-01-27T03:08:55.411Z,94301.56
2019-01-27T03:11:21.328Z,94303.81
2019-01-27T03:13:47.365Z,94294.91
2019-01-27T03:16:15.046Z,94293.67
2019-01-27T03:18:41.043Z,94291.84
2019-01-27T03:21:07.075Z,94297.16
2019-01-27T03:23:33.067Z,94294.00
2019-01-27T03:25:59.111Z,94294.31
2019-01-27T03:28:25.145Z,94295.95
2019-01-27T03:30:51.137Z,94296.75
2019-01-27T03:33:17.131Z,94296.97
2019-01-27T03:35:43.165Z,94299.53
2019-01-27T03:38:09.159Z,94305.78
2019-01-27T03:40:35.191Z,94296.47
2019-01-27T03:43:01.187Z,94292.98
2019-01-27T03:45:27.190Z,94281.92
2019-01-27T03:47:53.225Z,94282.33
2019-01-27T03:50:19.219Z,94284.99
2019-01-27T03:52:45.212Z,94287.37
2019-01-27T03:55:11.260Z,94289.52
2019-01-27T03:57:37.256Z,94290.44
2019-01-27T04:00:03.252Z,94284.99
2019-01-27T04:02:29.296Z,94283.25
2019-01-27T04:04:55.291Z,94286.23
2019-01-27T04:07:21.300Z,94292.19
2019-01-27T04:09:47.335Z,94294.44
2019-01-27T04:12:13.332Z,94285.63
2019-01-27T04:14:39.328Z,94285.53
2019-01-27T04:17:05.366Z,94283.38
2019-01-27T04:19:31.364Z,94280.72
2019-01-27T04:21:57.353Z,94282.05
2019-01-27T04:24:23.392Z,94280.72
2019-01-27T04:26:49.422Z,94280.72
2019-01-27T04:29:15.421Z,94279.48
2019-01-27T04:31:41.414Z,94287.08
2019-01-27T04:34:07.455Z,94285.75
2019-01-27T04:36:33.453Z,94290.86
2019-01-27T04:38:59.446Z,94294.94
2019-01-27T04:41:25.487Z,94289.62
2019-01-27T04:43:51.482Z,94298.42
2019-01-27T04:46:17.476Z,94300.27
2019-01-27T04:48:43.511Z,94296.27
2019-01-27T04:51:09.498Z,94295.45
2019-01-27T04:53:35.520Z,94293.61
2019-01-27T04:56:01.552Z,94300.77
2019-01-27T04:58:27.592Z,94300.77
2019-01-27T05:00:53.589Z,94300.39
2019-01-27T05:03:19.589Z,94305.17
2019-01-27T05:05:45.620Z,94305.27
2019-01-27T05:08:11.619Z,94311.41
2019-01-27T05:10:37.610Z,94322.06
2019-01-27T05:13:03.653Z,94322.16
2019-01-27T05:15:29.651Z,94321.73
2019-01-27T05:17:55.644Z,94316.41
2019-01-27T05:20:21.689Z,94316.83
2019-01-27T05:22:47.682Z,94318.58
2019-01-27T05:25:13.680Z,94318.16
2019-01-27T05:27:39.720Z,94315.72
2019-01-27T05:30:05.713Z,94321.33
2019-01-27T05:32:31.713Z,94321.23
2019-01-27T05:34:57.742Z,94311.92
2019-01-27T05:37:23.744Z,94310.91
2019-01-27T05:39:49.743Z,94311.83
2019-01-27T05:42:15.826Z,94315.31
2019-01-27T05:44:41.871Z,94325.45
2019-01-27T05:47:07.857Z,94316.64
2019-01-27T05:49:33.862Z,94311.20
2019-01-27T05:52:00.043Z,94310.81
2019-01-27T05:54:26.091Z,94316.14
2019-01-27T05:56:56.454Z,94308.95
2019-01-27T05:59:18.080Z,94312.31
2019-01-27T06:01:44.115Z,94320.41
2019-01-27T06:04:10.153Z,94316.92
2019-01-27T06:06:36.146Z,94317.34
2019-01-27T06:09:02.144Z,94317.63
2019-01-27T06:11:28.171Z,94323.08
2019-01-27T06:13:54.163Z,94330.43
2019-01-27T06:16:20.158Z,94323.78
2019-01-27T06:18:46.198Z,94328.40
2019-01-27T06:21:12.191Z,94329.95
2019-01-27T06:23:38.183Z,94338.34
2019-01-27T06:26:04.222Z,94327.00
2019-01-27T06:28:30.215Z,94326.46
2019-01-27T06:30:56.213Z,94330.55
2019-01-27T06:33:22.290Z,94327.47
2019-01-27T06:35:48.259Z,94317.34
2019-01-27T06:38:14.256Z,94316.92
2019-01-27T06:40:40.294Z,94323.19
2019-01-27T06:43:06.297Z,94320.00
2019-01-27T06:45:32.287Z,94318.25
2019-01-27T06:47:58.323Z,94328.52
2019-01-27T06:50:24.369Z,94320.53
2019-01-27T06:52:50.369Z,94323.28
2019-01-27T06:55:16.408Z,94311.72
2019-01-27T06:57:42.402Z,94320.22
2019-01-27T07:00:08.415Z,94314.39
2019-01-27T07:02:34.468Z,94319.71
2019-01-27T07:05:00.464Z,94327.78
2019-01-27T07:07:26.459Z,94328.20
2019-01-27T07:09:52.730Z,94336.59
2019-01-27T07:12:18.727Z,94339.45
2019-01-27T07:14:44.723Z,94334.62
2019-01-27T07:17:10.770Z,94329.44
2019-01-27T07:19:36.777Z,94337.94
2019-01-27T07:22:02.765Z,94333.92
2019-01-27T07:24:29.922Z,94331.47
2019-01-27T07:26:54.808Z,94328.59
2019-01-27T07:29:20.800Z,94336.45
2019-01-27T07:31:46.846Z,94332.17
2019-01-27T07:34:12.837Z,94330.72
2019-01-27T07:36:38.830Z,94324.38
2019-01-27T07:39:04.869Z,94318.74
2019-01-27T07:41:30.859Z,94316.19
2019-01-27T07:43:56.858Z,94317.80
2019-01-27T07:46:22.923Z,94325.08
2019-01-27T07:48:48.959Z,94324.80
2019-01-27T07:51:14.981Z,94320.80
2019-01-27T07:53:41.036Z,94323.47
2019-01-27T07:56:07.046Z,94326.22
2019-01-27T07:58:33.046Z,94331.55
2019-01-27T08:00:59.111Z,94323.97
2019-01-27T08:03:25.111Z,94321.81
2019-01-27T08:05:51.102Z,94320.90
2019-01-27T08:08:17.151Z,94323.97
2019-01-27T08:10:43.147Z,94323.56
2019-01-27T08:13:09.141Z,94323.91
2019-01-27T08:15:35.187Z,94328.47
2019-01-27T08:18:01.182Z,94324.48
2019-01-27T08:20:27.175Z,94334.20
2019-01-27T08:22:53.211Z,94335.44
2019-01-27T08:25:19.289Z,94325.71
2019-01-27T08:27:45.259Z,94321.59
2019-01-27T08:30:11.302Z,94327.33
2019-01-27T08:32:37.296Z,94329.36
2019-01-27T08:35:03.318Z,94324.95
2019-01-27T08:37:29.358Z,94324.87
2019-01-27T08:39:55.363Z,94325.69
2019-01-27T08:42:21.360Z,94319.54
2019-01-27T08:44:47.390Z,94320.53
2019-01-27T08:47:13.382Z,94324.94
2019-01-27T08:49:39.428Z,94326.96
2019-01-27T08:52:05.521Z,94323.09
2019-01-27T08:54:31.470Z,94322.17
2019-01-27T08:56:57.469Z,94328.20
2019-01-27T08:59:23.502Z,94321.96
2019-01-27T09:01:49.495Z,94324.08
2019-01-27T09:04:15.488Z,94320.91
2019-01-27T09:06:41.522Z,94316.89
2019-01-27T09:09:07.520Z,94330.05
2019-01-27T09:11:33.510Z,94323.40
2019-01-27T09:13:59.552Z,94320.16
2019-01-27T09:16:25.546Z,94317.50
2019-01-27T09:18:51.546Z,94318.88
2019-01-27T09:21:18.158Z,94322.02
2019-01-27T09:23:44.150Z,94320.30
2019-01-27T09:26:10.164Z,94329.14
2019-01-27T09:28:36.199Z,94333.77
2019-01-27T09:31:02.200Z,94335.09
2019-01-27T09:33:28.210Z,94335.80
2019-01-27T09:35:54.253Z,94336.48
2019-01-27T09:38:20.247Z,94333.95
2019-01-27T09:40:46.237Z,94331.30
2019-01-27T09:43:12.279Z,94325.46
2019-01-27T09:45:38.326Z,94325.97
2019-01-27T09:48:04.324Z,94320.64
2019-01-27T09:50:30.360Z,94325.24
2019-01-27T09:52:56.354Z,94318.97
2019-01-27T09:55:22.352Z,94314.87
2019-01-27T09:57:48.539Z,94317.03
2019-01-27T10:00:14.528Z,94314.75
2019-01-27T10:02:40.522Z,94313.96
2019-01-27T10:05:06.558Z,94307.81
2019-01-27T10:07:32.556Z,94308.22
2019-01-27T10:09:58.548Z,94303.72
2019-01-27T10:12:25.014Z,94300.11
2019-01-27T10:14:51.011Z,94303.89
2019-01-27T10:17:17.007Z,94296.72
2019-01-27T10:19:43.343Z,94292.00
2019-01-27T10:22:09.349Z,94291.68
2019-01-27T10:24:35.345Z,94290.03
2019-01-27T10:27:01.396Z,94285.85
2019-01-27T10:29:27.393Z,94287.00
2019-01-27T10:31:53.389Z,94283.73
2019-01-27T10:34:19.585Z,94284.11
2019-01-27T10:36:45.603Z,94281.16
2019-01-27T10:39:11.594Z,94286.30
2019-01-27T10:41:37.898Z,94277.67
2019-01-27T10:44:03.890Z,94276.53
2019-01-27T10:46:29.890Z,94271.84
2019-01-27T10:48:58.743Z,94266.52
2019-01-27T10:51:24.741Z,94258.81
2019-01-27T10:53:50.753Z,94258.72
2019-01-27T10:56:16.953Z,94254.72
2019-01-27T10:58:42.959Z,94249.27
2019-01-27T11:01:08.953Z,94249.59
2019-01-27T11:03:35.000Z,94244.08
2019-01-27T11:06:00.997Z,94244.36
2019-01-27T11:08:26.998Z,94240.68
2019-01-27T11:10:53.044Z,94239.63
2019-01-27T11:13:19.033Z,94229.90
2019-01-27T11:15:45.067Z,94237.89
2019-01-27T11:18:12.995Z,94236.27
2019-01-27T11:20:40.276Z,94231.97
2019-01-27T11:23:06.361Z,94233.61
2019-01-27T11:25:36.927Z,94233.39
2019-01-27T11:28:05.767Z,94233.89
2019-01-27T11:30:31.927Z,94233.89
2019-01-27T11:32:58.125Z,94228.06
2019-01-27T11:35:25.104Z,94220.27
2019-01-27T11:37:51.307Z,94216.36
2019-01-27T11:40:18.093Z,94220.08
2019-01-27T11:42:44.154Z,94218.62
2019-01-27T11:45:10.467Z,94211.45
2019-01-27T11:47:37.277Z,94209.39
2019-01-27T11:50:03.654Z,94204.57
2019-01-27T11:52:30.040Z,94198.09
2019-01-27T11:54:56.061Z,94196.45
2019-01-27T11:57:23.109Z,94192.77
2019-01-27T11:59:51.783Z,94193.00
2019-01-27T12:02:19.150Z,94187.86
2019-01-27T12:04:45.187Z,94189.19
2019-01-27T12:07:14.082Z,94185.19
2019-01-27T12:09:40.327Z,94184.66
2019-01-27T12:12:07.019Z,94181.20
2019-01-27T12:14:34.589Z,94172.45
2019-01-27T12:17:01.567Z,94172.34
2019-01-27T12:19:29.208Z,94168.77
2019-01-27T12:21:55.927Z,94167.30
2019-01-27T12:24:25.227Z,94163.21
2019-01-27T12:26:53.071Z,94162.16
2019-01-27T12:29:19.133Z,94162.54
2019-01-27T12:31:45.826Z,94157.17
2019-01-27T12:34:11.881Z,94153.64
2019-01-27T12:36:39.802Z,94154.34
2019-01-27T12:39:11.632Z,94153.23
2019-01-27T12:41:44.748Z,94153.06
2019-01-27T12:44:15.996Z,94148.14
2019-01-27T12:46:44.783Z,94152.20
2019-01-27T12:49:10.798Z,94152.55
2019-01-27T12:51:38.348Z,94156.98
2019-01-27T12:54:05.469Z,94146.55
2019-01-27T12:56:31.954Z,94148.25
2019-01-27T12:58:58.299Z,94146.32
2019-01-27T13:01:24.817Z,94144.48
2019-01-27T13:03:51.880Z,94153.63
2019-01-27T13:06:20.554Z,94148.20
2019-01-27T13:08:48.554Z,94146.92
2019-01-27T13:11:18.755Z,94146.73
2019-01-27T13:13:47.830Z,94138.80
2019-01-27T13:16:14.018Z,94134.05
2019-01-27T13:18:40.056Z,94137.13
2019-01-27T13:21:06.054Z,94135.44
2019-01-27T13:23:32.055Z,94146.09
2019-01-27T13:25:58.101Z,94144.25
2019-01-27T13:28:24.094Z,94138.66
2019-01-27T13:30:50.090Z,94138.05
2019-01-27T13:33:16.335Z,94133.97
2019-01-27T13:35:42.329Z,94135.12
2019-01-27T13:38:08.459Z,94136.09
2019-01-27T13:40:34.426Z,94130.99
2019-01-27T13:43:00.390Z,94127.17
2019-01-27T13:45:26.436Z,94126.84
2019-01-27T13:47:52.432Z,94129.10
2019-01-27T13:50:18.445Z,94124.41
2019-01-27T13:52:45.441Z,94119.86
2019-01-27T13:55:11.436Z,94121.66
2019-01-27T13:57:37.435Z,94120.05
2019-01-27T14:00:03.524Z,94115.13
2019-01-27T14:02:29.542Z,94109.11
2019-01-27T14:04:55.540Z,94109.72
2019-01-27T14:07:21.582Z,94110.08
2019-01-27T14:09:47.584Z,94114.71
2019-01-27T14:12:13.579Z,94110.31
2019-01-27T14:14:39.901Z,94112.33
2019-01-27T14:17:05.906Z,94117.66
2019-01-27T14:19:31.894Z,94116.33
2019-01-27T14:21:58.064Z,94118.58
2019-01-27T14:24:25.364Z,94116.92
2019-01-27T14:26:51.425Z,94114.95
2019-01-27T14:29:22.837Z,94117.10
2019-01-27T14:31:49.219Z,94119.77
2019-01-27T14:34:18.701Z,94115.77
2019-01-27T14:36:44.709Z,94113.16
2019-01-27T14:39:11.287Z,94114.71
2019-01-27T14:41:38.582Z,94110.54
2019-01-27T14:44:05.483Z,94113.48
2019-01-27T14:46:31.512Z,94110.08
2019-01-27T14:48:57.735Z,94114.77
2019-01-27T14:51:25.309Z,94120.33
2019-01-27T14:53:54.629Z,94127.58
2019-01-27T14:56:20.636Z,94125.61
2019-01-27T15:01:32.089Z,94131.16
2019-01-27T15:03:58.116Z,94137.14
2019-01-27T15:06:24.120Z,94131.95
2019-01-27T15:08:54.031Z,94129.36
2019-01-27T15:11:20.065Z,94137.14
2019-01-27T15:13:46.061Z,94130.84
2019-01-27T15:16:15.546Z,94137.35
2019-01-27T15:18:41.583Z,94138.28
2019-01-27T15:21:07.583Z,94141.45
2019-01-27T15:23:45.194Z,94146.50
2019-01-27T15:26:11.505Z,94143.38
2019-01-27T15:28:38.326Z,94146.55
2019-01-27T15:31:05.825Z,94145.31
2019-01-27T15:33:32.292Z,94140.98
2019-01-27T15:35:58.280Z,94142.08
2019-01-27T15:38:24.274Z,94141.20
2019-01-27T15:40:50.535Z,94148.27
2019-01-27T15:43:16.527Z,94146.13
2019-01-27T15:45:42.526Z,94150.62
2019-01-27T15:48:08.567Z,94148.78
2019-01-27T15:50:34.568Z,94156.08
2019-01-27T15:53:00.572Z,94156.36
2019-01-27T15:55:26.617Z,94151.95
2019-01-27T15:57:52.613Z,94158.58
2019-01-27T16:00:18.669Z,94163.39
2019-01-27T16:02:44.705Z,94156.78
2019-01-27T16:05:10.708Z,94157.28
2019-01-27T16:07:36.703Z,94161.19
2019-01-27T16:10:03.344Z,94166.20
2019-01-27T16:12:29.339Z,94171.24
2019-01-27T16:14:55.332Z,94174.64
2019-01-27T16:17:21.370Z,94175.75
2019-01-27T16:19:47.407Z,94180.98
2019-01-27T16:22:13.493Z,94173.49
2019-01-27T16:24:39.482Z,94182.34
2019-01-27T16:27:06.338Z,94179.81
2019-01-27T16:29:32.334Z,94176.75
2019-01-27T16:31:58.327Z,94183.48
2019-01-27T16:34:24.358Z,94193.99
2019-01-27T16:36:50.352Z,94191.02
2019-01-27T16:39:16.392Z,94190.36
2019-01-27T16:41:42.403Z,94191.24
2019-01-27T16:44:08.557Z,94195.78
2019-01-27T16:46:34.568Z,94200.50
2019-01-27T16:49:00.587Z,94198.06
2019-01-27T16:51:26.617Z,94199.69
2019-01-27T16:53:52.838Z,94200.98
2019-01-27T16:56:18.839Z,94203.36
2019-01-27T16:58:44.996Z,94205.20
2019-01-27T17:01:10.986Z,94202.02
2019-01-27T17:03:37.056Z,94205.38
2019-01-27T17:06:03.075Z,94212.45
2019-01-27T17:08:29.505Z,94212.97
2019-01-27T17:10:55.836Z,94209.20
2019-01-27T17:13:21.849Z,94210.94
2019-01-27T17:15:47.926Z,94211.86
2019-01-27T17:18:13.926Z,94218.30
2019-01-27T17:20:39.931Z,94223.40
2019-01-27T17:23:06.033Z,94214.80
2019-01-27T17:25:32.044Z,94208.27
2019-01-27T17:27:58.097Z,94207.83
2019-01-27T17:30:24.105Z,94201.39
2019-01-27T17:32:50.241Z,94196.38
2019-01-27T17:35:16.283Z,94197.27
2019-01-27T17:37:42.301Z,94197.71
2019-01-27T17:40:08.389Z,94207.80
2019-01-27T17:42:34.383Z,94206.75
2019-01-27T17:45:00.479Z,94214.88
2019-01-27T17:47:26.504Z,94215.25
2019-01-27T17:49:52.506Z,94215.66
2019-01-27T17:52:18.584Z,94211.55
2019-01-27T17:54:44.620Z,94215.70
2019-01-27T17:57:10.621Z,94220.88
2019-01-27T17:59:36.663Z,94216.05
2019-01-27T18:02:02.660Z,94222.59
2019-01-27T18:04:28.702Z,94222.20
2019-01-27T18:06:54.705Z,94222.48
2019-01-27T18:09:20.834Z,94220.05
2019-01-27T18:11:46.884Z,94222.94
2019-01-27T18:14:12.969Z,94224.45
2019-01-27T18:16:39.201Z,94229.59
2019-01-27T18:19:05.263Z,94229.79
2019-01-27T18:21:31.486Z,94235.75
2019-01-27T18:23:57.544Z,94234.42
2019-01-27T18:26:23.552Z,94238.23
2019-01-27T18:28:51.822Z,94240.77
2019-01-27T18:31:15.614Z,94248.88
2019-01-27T18:33:41.599Z,94253.29
2019-01-27T18:36:08.615Z,94253.29
2019-01-27T18:38:34.656Z,94252.34
2019-01-27T18:41:00.667Z,94252.05
2019-01-27T18:43:26.691Z,94247.36
2019-01-27T18:45:52.714Z,94259.34
2019-01-27T18:48:22.372Z,94252.78
2019-01-27T18:50:48.371Z,94248.73
2019-01-27T18:53:14.421Z,94254.69
2019-01-27T18:55:41.694Z,94244.55
2019-01-27T18:58:09.916Z,94248.82
2019-01-27T19:00:36.256Z,94244.26
2019-01-27T19:03:02.285Z,94244.13
2019-01-27T19:05:28.353Z,94253.04
2019-01-27T19:07:54.414Z,94242.80
2019-01-27T19:10:20.675Z,94246.22
2019-01-27T19:12:47.160Z,94262.42
2019-01-27T19:15:13.181Z,94257.48
2019-01-27T19:17:39.225Z,94260.69
2019-01-27T19:20:06.068Z,94251.45
2019-01-27T19:22:36.787Z,94251.27
2019-01-27T19:25:02.946Z,94240.02
2019-01-27T19:27:28.946Z,94237.83
2019-01-27T19:29:54.956Z,94244.06
2019-01-27T19:32:21.003Z,94238.11
2019-01-27T19:34:47.002Z,94235.73
2019-01-27T19:37:13.003Z,94224.16
2019-01-27T19:39:39.044Z,94220.16
2019-01-27T19:42:05.090Z,94213.38
2019-01-27T19:44:31.089Z,94219.91
2019-01-27T19:46:57.084Z,94221.01
2019-01-27T19:49:23.144Z,94228.36
2019-01-27T19:51:49.160Z,94217.46
2019-01-27T19:54:15.159Z,94221.20
2019-01-27T19:56:41.225Z,94223.19
2019-01-27T19:59:07.263Z,94220.88
2019-01-27T20:01:33.252Z,94213.12
2019-01-27T20:04:00.319Z,94212.45
2019-01-27T20:06:26.310Z,94206.98
2019-01-27T20:08:52.367Z,94196.14
2019-01-27T20:11:18.472Z,94200.48
2019-01-27T20:13:44.472Z,94204.39
2019-01-27T20:16:10.471Z,94202.27
2019-01-27T20:18:36.517Z,94187.53
2019-01-27T20:21:02.589Z,94192.16
2019-01-27T20:23:28.501Z,94186.83
2019-01-27T20:25:54.537Z,94186.55
2019-01-27T20:28:20.536Z,94186.23
2019-01-27T20:30:46.544Z,94177.03
2019-01-27T20:33:12.566Z,94179.70
2019-01-27T20:35:38.560Z,94185.03
2019-01-27T20:38:04.596Z,94181.86
2019-01-27T20:40:30.633Z,94184.62
2019-01-27T20:42:56.631Z,94174.79
2019-01-27T20:45:22.644Z,94174.60
2019-01-27T20:47:49.613Z,94184.84
2019-01-27T20:50:16.828Z,94183.70
2019-01-27T20:52:41.653Z,94182.78
2019-01-27T20:55:07.647Z,94184.20
2019-01-27T20:57:33.638Z,94182.65
2019-01-27T20:59:59.686Z,94176.75
2019-01-27T21:02:25.734Z,94171.11
2019-01-27T21:04:56.452Z,94160.41
2019-01-27T21:07:17.763Z,94162.71
2019-01-27T21:09:43.805Z,94163.77
2019-01-27T21:12:09.798Z,94155.08
2019-01-27T21:14:35.792Z,94148.70
2019-01-27T21:17:01.839Z,94144.02
2019-01-27T21:19:27.911Z,94129.55
2019-01-27T21:21:53.906Z,94120.33
2019-01-27T21:24:19.898Z,94131.39
2019-01-27T21:26:46.010Z,94130.75
2019-01-27T21:29:12.006Z,94137.03
2019-01-27T21:31:38.002Z,94144.07
2019-01-27T21:34:04.038Z,94139.70
2019-01-27T21:36:30.031Z,94137.83
2019-01-27T21:38:56.057Z,94131.30
2019-01-27T21:41:22.105Z,94142.36
2019-01-27T21:43:48.100Z,94144.48
2019-01-27T21:46:14.095Z,94142.23
2019-01-27T21:48:40.264Z,94149.94
2019-01-27T21:51:06.276Z,94151.68
2019-01-27T21:53:32.276Z,94145.94
2019-01-27T21:55:58.307Z,94151.68
2019-01-27T21:58:24.307Z,94160.46
2019-01-27T22:00:50.321Z,94165.09
2019-01-27T22:03:16.359Z,94178.41
2019-01-27T22:05:42.363Z,94175.65
2019-01-27T22:08:08.391Z,94169.78
2019-01-27T22:10:34.435Z,94177.48
2019-01-27T22:13:00.430Z,94175.75
2019-01-27T22:15:26.432Z,94173.49
2019-01-27T22:17:52.788Z,94172.39
2019-01-27T22:23:06.196Z,94166.55
2019-01-27T22:25:31.962Z,94174.83
2019-01-27T22:27:57.960Z,94170.55
2019-01-27T22:30:24.013Z,94173.08
2019-01-27T22:32:50.011Z,94169.22
2019-01-27T22:35:16.010Z,94166.42
2019-01-27T22:37:42.044Z,94164.36
2019-01-27T22:40:08.038Z,94176.98
2019-01-27T22:42:34.076Z,94171.34
2019-01-27T22:45:00.101Z,94179.14
2019-01-27T22:47:26.078Z,94178.41
2019-01-27T22:49:52.129Z,94177.27
2019-01-27T22:52:18.128Z,94164.50
2019-01-27T22:54:44.128Z,94162.87
2019-01-27T22:57:10.172Z,94158.19
2019-01-27T22:59:36.214Z,94171.92
2019-01-27T23:02:02.214Z,94171.50
2019-01-27T23:04:28.251Z,94163.23
2019-01-27T23:06:54.264Z,94151.25
2019-01-27T23:09:20.259Z,94148.45
2019-01-27T23:11:46.293Z,94140.06
2019-01-27T23:14:12.332Z,94141.61
2019-01-27T23:16:38.332Z,94138.16
2019-01-27T23:19:04.326Z,94141.11
2019-01-27T23:21:30.390Z,94151.47
2019-01-27T23:23:56.388Z,94129.76
2019-01-27T23:26:22.381Z,94144.81
2019-01-27T23:28:48.413Z,94131.78
2019-01-27T23:31:14.431Z,94131.38
2019-01-27T23:33:40.464Z,94147.77
2019-01-27T23:36:06.459Z,94143.36
2019-01-27T23:38:32.483Z,94143.41
2019-01-27T23:40:58.520Z,94144.46
2019-01-27T23:43:24.550Z,94133.30
2019-01-27T23:45:50.546Z,94136.25
2019-01-27T23:48:16.546Z,94131.43
2019-01-27T23:50:42.579Z,94130.87
2019-01-27T23:53:08.575Z,94122.88
2019-01-27T23:55:34.588Z,94131.05
2019-01-27T23:58:00.683Z,94132.89
